Weather at Negotino Airfield [CLOSED]

Public forecast

Using degrees Celsius for public forecast. Weather courtesy of forecast.io.

Closest aviation weather report (METAR) to Negotino Airfield

Closest report is Skopje International Airport, 33.7 nm (62.4 km) NW.

2024/03/03 09:20 (retrieved 5 minutes ago)

LWSK 030920Z VRB02KT CAVOK 13/07 Q1014 NOSIG

Closest aviation forecast (TAF) to Negotino Airfield

Closest forecast is Skopje International Airport, 33.7 nm (62.4 km) NW.

2024/03/03 09:31 (retrieved 0 seconds ago)

TAF LWSK 030830Z 0309/0409 VRB02KT CAVOK